KHJH

Details ICAO KHJH
Name HEBRON MUNI
Region United States
Timezone America/Chicago (UTC-5.0)
Plans Departing 0
Arriving 0
Stats Elevation 1,466 ft / 447 m (AMSL)
Location 40.151897° -97.584007°
Runways 2
Magnetic Variation 3.701° E
Sunrise 2018-05-25 11:08:16 UTC / 2018-05-25 06:08:16 Local
Sunset 2018-05-26 01:49:12 UTC / 2018-05-25 20:49:12 Local
Advertisement - Login to hide

Runways

ID Width Length Bearing (true) Bearing (mag) Surface Threshold Offset Overrun Length
03 151 ft / 46 m 2,530 ft / 771 m 41.72° 38.02° Grass 0 ft / 0 m 0 ft / 0 m
12 59 ft / 18 m 3,621 ft / 1,104 m 128.40° 124.70° Concrete 0 ft / 0 m 0 ft / 0 m
21 151 ft / 46 m 2,530 ft / 771 m 221.72° 218.02° Grass 0 ft / 0 m 0 ft / 0 m
30 59 ft / 18 m 3,621 ft / 1,104 m 308.40° 304.70° Concrete 0 ft / 0 m 0 ft / 0 m

Map

Weather


0- 5 10 15 20 25 30 35+ Temperature / ° C

Clouds and Precipitation
Forecast for 2018-05-25 18:00 UTC. Updated 5 hours ago

Ground ~20,000 ft ~40,000 ft Winds

METAR

KHJH 252235Z AUTO 24010G14KT 10SM CLR 35/12 A2978 RMK AO2 T03500122

TAF

Not found

Frequencies

Recorded 118.52 MHz AWOS3
Unicom 122.90 MHz CTAF
Warning: Do not use this data for real-world aviation or navigation. No guarantee of current accuracy is given.